sensor_id;sensor_type;location;lat;lon;timestamp;P1;durP1;ratioP1;P2;durP2;ratioP2
44706;SDS011;30433;45.596;8.408;2023-11-21T00:05:37;19.65;;;15.85;;
44706;SDS011;30433;45.596;8.408;2023-11-21T00:11:41;19.60;;;17.02;;
44706;SDS011;30433;45.596;8.408;2023-11-21T00:17:44;21.60;;;18.33;;
44706;SDS011;30433;45.596;8.408;2023-11-21T00:23:48;28.25;;;19.25;;
44706;SDS011;30433;45.596;8.408;2023-11-21T00:29:50;23.38;;;20.27;;
44706;SDS011;30433;45.596;8.408;2023-11-21T00:35:53;24.08;;;20.75;;
44706;SDS011;30433;45.596;8.408;2023-11-21T00:41:59;23.30;;;20.52;;
44706;SDS011;30433;45.596;8.408;2023-11-21T00:48:01;24.83;;;20.13;;
44706;SDS011;30433;45.596;8.408;2023-11-21T00:54:05;22.90;;;18.02;;
44706;SDS011;30433;45.596;8.408;2023-11-21T01:00:09;20.23;;;18.07;;
44706;SDS011;30433;45.596;8.408;2023-11-21T01:06:14;20.17;;;17.15;;
44706;SDS011;30433;45.596;8.408;2023-11-21T01:12:16;21.33;;;16.67;;
44706;SDS011;30433;45.596;8.408;2023-11-21T01:18:20;21.23;;;15.95;;
44706;SDS011;30433;45.596;8.408;2023-11-21T01:24:22;20.00;;;17.17;;
44706;SDS011;30433;45.596;8.408;2023-11-21T01:30:25;21.95;;;18.23;;
44706;SDS011;30433;45.596;8.408;2023-11-21T01:36:32;21.20;;;17.15;;
44706;SDS011;30433;45.596;8.408;2023-11-21T01:42:35;21.40;;;18.30;;
44706;SDS011;30433;45.596;8.408;2023-11-21T01:48:37;24.38;;;19.80;;
44706;SDS011;30433;45.596;8.408;2023-11-21T01:54:41;23.63;;;19.17;;
44706;SDS011;30433;45.596;8.408;2023-11-21T02:00:44;23.65;;;18.20;;
44706;SDS011;30433;45.596;8.408;2023-11-21T02:06:46;23.20;;;17.33;;
44706;SDS011;30433;45.596;8.408;2023-11-21T02:12:50;26.73;;;18.70;;
44706;SDS011;30433;45.596;8.408;2023-11-21T02:18:52;21.88;;;18.10;;
44706;SDS011;30433;45.596;8.408;2023-11-21T02:24:56;21.85;;;15.43;;
44706;SDS011;30433;45.596;8.408;2023-11-21T02:30:58;19.30;;;15.55;;
44706;SDS011;30433;45.596;8.408;2023-11-21T02:37:00;19.05;;;15.23;;
44706;SDS011;30433;45.596;8.408;2023-11-21T02:43:04;18.25;;;13.85;;
44706;SDS011;30433;45.596;8.408;2023-11-21T02:49:06;19.52;;;14.45;;
44706;SDS011;30433;45.596;8.408;2023-11-21T02:55:10;18.98;;;16.23;;
44706;SDS011;30433;45.596;8.408;2023-11-21T03:01:13;18.00;;;15.25;;
44706;SDS011;30433;45.596;8.408;2023-11-21T03:07:17;18.67;;;16.20;;
44706;SDS011;30433;45.596;8.408;2023-11-21T03:13:20;19.88;;;16.50;;
44706;SDS011;30433;45.596;8.408;2023-11-21T03:19:23;21.48;;;17.63;;
44706;SDS011;30433;45.596;8.408;2023-11-21T03:25:25;19.63;;;16.33;;
44706;SDS011;30433;45.596;8.408;2023-11-21T03:31:27;21.35;;;18.52;;
44706;SDS011;30433;45.596;8.408;2023-11-21T03:37:31;21.83;;;17.30;;
44706;SDS011;30433;45.596;8.408;2023-11-21T03:43:33;18.92;;;16.80;;
44706;SDS011;30433;45.596;8.408;2023-11-21T03:49:35;18.77;;;14.77;;
44706;SDS011;30433;45.596;8.408;2023-11-21T03:55:39;18.42;;;13.95;;
44706;SDS011;30433;45.596;8.408;2023-11-21T04:01:41;14.90;;;12.02;;
44706;SDS011;30433;45.596;8.408;2023-11-21T04:07:43;13.70;;;10.02;;
44706;SDS011;30433;45.596;8.408;2023-11-21T04:13:47;15.32;;;11.07;;
44706;SDS011;30433;45.596;8.408;2023-11-21T04:25:51;13.25;;;10.00;;
44706;SDS011;30433;45.596;8.408;2023-11-21T04:37:57;10.07;;;8.38;;
44706;SDS011;30433;45.596;8.408;2023-11-21T04:43:59;8.48;;;6.72;;
44706;SDS011;30433;45.596;8.408;2023-11-21T04:50:03;9.52;;;6.47;;
44706;SDS011;30433;45.596;8.408;2023-11-21T04:56:06;9.02;;;5.95;;
44706;SDS011;30433;45.596;8.408;2023-11-21T05:02:09;7.20;;;5.40;;
44706;SDS011;30433;45.596;8.408;2023-11-21T05:08:12;7.93;;;5.55;;
44706;SDS011;30433;45.596;8.408;2023-11-21T05:20:18;8.70;;;5.80;;
44706;SDS011;30433;45.596;8.408;2023-11-21T05:26:23;7.28;;;5.72;;
44706;SDS011;30433;45.596;8.408;2023-11-21T05:32:25;8.52;;;6.20;;
44706;SDS011;30433;45.596;8.408;2023-11-21T05:38:27;7.90;;;6.20;;
44706;SDS011;30433;45.596;8.408;2023-11-21T05:44:31;10.18;;;6.70;;
44706;SDS011;30433;45.596;8.408;2023-11-21T05:50:35;7.85;;;6.07;;
44706;SDS011;30433;45.596;8.408;2023-11-21T05:56:38;9.35;;;6.18;;
44706;SDS011;30433;45.596;8.408;2023-11-21T06:02:41;8.95;;;5.95;;
44706;SDS011;30433;45.596;8.408;2023-11-21T06:08:43;9.23;;;6.25;;
44706;SDS011;30433;45.596;8.408;2023-11-21T06:14:46;8.50;;;6.78;;
44706;SDS011;30433;45.596;8.408;2023-11-21T06:20:50;9.93;;;6.63;;
44706;SDS011;30433;45.596;8.408;2023-11-21T06:26:53;8.02;;;5.97;;
44706;SDS011;30433;45.596;8.408;2023-11-21T06:32:55;8.70;;;5.60;;
44706;SDS011;30433;45.596;8.408;2023-11-21T06:38:59;12.00;;;5.88;;
44706;SDS011;30433;45.596;8.408;2023-11-21T06:51:04;9.48;;;5.88;;
44706;SDS011;30433;45.596;8.408;2023-11-21T06:57:08;9.43;;;5.30;;
44706;SDS011;30433;45.596;8.408;2023-11-21T07:03:10;10.18;;;5.50;;
44706;SDS011;30433;45.596;8.408;2023-11-21T07:09:13;7.28;;;5.28;;
44706;SDS011;30433;45.596;8.408;2023-11-21T07:15:17;7.87;;;5.67;;
44706;SDS011;30433;45.596;8.408;2023-11-21T07:21:19;7.78;;;5.00;;
44706;SDS011;30433;45.596;8.408;2023-11-21T07:27:21;7.15;;;4.70;;
44706;SDS011;30433;45.596;8.408;2023-11-21T07:33:25;10.90;;;6.07;;
44706;SDS011;30433;45.596;8.408;2023-11-21T07:39:27;9.88;;;4.88;;
44706;SDS011;30433;45.596;8.408;2023-11-21T07:45:30;10.13;;;4.80;;
44706;SDS011;30433;45.596;8.408;2023-11-21T07:51:34;11.20;;;5.63;;
44706;SDS011;30433;45.596;8.408;2023-11-21T08:03:38;5.93;;;4.30;;
44706;SDS011;30433;45.596;8.408;2023-11-21T08:09:42;6.55;;;4.85;;
44706;SDS011;30433;45.596;8.408;2023-11-21T08:15:44;5.72;;;3.95;;
44706;SDS011;30433;45.596;8.408;2023-11-21T08:21:46;7.97;;;4.53;;
44706;SDS011;30433;45.596;8.408;2023-11-21T08:27:50;7.47;;;5.38;;
44706;SDS011;30433;45.596;8.408;2023-11-21T08:33:52;7.50;;;5.05;;
44706;SDS011;30433;45.596;8.408;2023-11-21T08:39:55;8.17;;;5.43;;
44706;SDS011;30433;45.596;8.408;2023-11-21T08:46:01;9.27;;;5.95;;
44706;SDS011;30433;45.596;8.408;2023-11-21T08:52:03;13.57;;;6.63;;
44706;SDS011;30433;45.596;8.408;2023-11-21T08:58:06;6.65;;;5.50;;
44706;SDS011;30433;45.596;8.408;2023-11-21T09:04:10;7.50;;;5.40;;
44706;SDS011;30433;45.596;8.408;2023-11-21T09:10:12;9.43;;;6.47;;
44706;SDS011;30433;45.596;8.408;2023-11-21T09:16:15;11.00;;;6.90;;
44706;SDS011;30433;45.596;8.408;2023-11-21T09:22:18;17.05;;;7.60;;
44706;SDS011;30433;45.596;8.408;2023-11-21T09:28:20;10.13;;;6.60;;
44706;SDS011;30433;45.596;8.408;2023-11-21T09:34:23;12.55;;;8.68;;
44706;SDS011;30433;45.596;8.408;2023-11-21T09:40:27;12.00;;;9.50;;
44706;SDS011;30433;45.596;8.408;2023-11-21T09:46:31;21.58;;;15.30;;
44706;SDS011;30433;45.596;8.408;2023-11-21T09:52:38;19.20;;;14.80;;
44706;SDS011;30433;45.596;8.408;2023-11-21T09:58:52;19.27;;;14.48;;
44706;SDS011;30433;45.596;8.408;2023-11-21T10:04:56;19.67;;;15.00;;
44706;SDS011;30433;45.596;8.408;2023-11-21T10:11:00;21.67;;;16.27;;
44706;SDS011;30433;45.596;8.408;2023-11-21T10:17:04;25.13;;;17.93;;
44706;SDS011;30433;45.596;8.408;2023-11-21T10:23:08;25.42;;;19.27;;
44706;SDS011;30433;45.596;8.408;2023-11-21T10:29:13;26.83;;;18.17;;
44706;SDS011;30433;45.596;8.408;2023-11-21T10:35:18;21.67;;;18.10;;
44706;SDS011;30433;45.596;8.408;2023-11-21T10:41:20;30.40;;;20.05;;
44706;SDS011;30433;45.596;8.408;2023-11-21T10:47:22;30.08;;;20.15;;
44706;SDS011;30433;45.596;8.408;2023-11-21T10:53:29;29.20;;;21.35;;
44706;SDS011;30433;45.596;8.408;2023-11-21T10:59:32;29.08;;;22.08;;
44706;SDS011;30433;45.596;8.408;2023-11-21T11:05:34;39.63;;;25.95;;
44706;SDS011;30433;45.596;8.408;2023-11-21T11:11:38;35.60;;;25.83;;
44706;SDS011;30433;45.596;8.408;2023-11-21T11:17:41;32.92;;;25.73;;
44706;SDS011;30433;45.596;8.408;2023-11-21T11:29:57;35.15;;;25.17;;
44706;SDS011;30433;45.596;8.408;2023-11-21T11:36:10;34.77;;;26.57;;
44706;SDS011;30433;45.596;8.408;2023-11-21T11:42:17;32.53;;;25.70;;
44706;SDS011;30433;45.596;8.408;2023-11-21T11:48:21;33.80;;;23.70;;
44706;SDS011;30433;45.596;8.408;2023-11-21T11:54:34;39.38;;;32.20;;
44706;SDS011;30433;45.596;8.408;2023-11-21T12:00:37;45.20;;;33.65;;
44706;SDS011;30433;45.596;8.408;2023-11-21T12:12:45;45.17;;;35.00;;
44706;SDS011;30433;45.596;8.408;2023-11-21T12:18:48;47.13;;;35.85;;
44706;SDS011;30433;45.596;8.408;2023-11-21T12:24:51;45.07;;;35.60;;
44706;SDS011;30433;45.596;8.408;2023-11-21T12:30:54;40.25;;;33.45;;
44706;SDS011;30433;45.596;8.408;2023-11-21T12:36:57;39.50;;;31.35;;
44706;SDS011;30433;45.596;8.408;2023-11-21T12:43:03;44.70;;;35.35;;
44706;SDS011;30433;45.596;8.408;2023-11-21T12:49:05;46.83;;;34.78;;
44706;SDS011;30433;45.596;8.408;2023-11-21T12:55:07;45.53;;;34.40;;
44706;SDS011;30433;45.596;8.408;2023-11-21T13:01:12;39.58;;;32.40;;
44706;SDS011;30433;45.596;8.408;2023-11-21T13:07:18;45.10;;;34.90;;
44706;SDS011;30433;45.596;8.408;2023-11-21T13:13:22;46.60;;;35.97;;
44706;SDS011;30433;45.596;8.408;2023-11-21T13:19:29;49.42;;;38.58;;
44706;SDS011;30433;45.596;8.408;2023-11-21T13:25:31;51.10;;;39.17;;
44706;SDS011;30433;45.596;8.408;2023-11-21T13:31:33;51.08;;;38.70;;
44706;SDS011;30433;45.596;8.408;2023-11-21T13:37:38;45.03;;;38.05;;
44706;SDS011;30433;45.596;8.408;2023-11-21T13:43:41;49.95;;;38.03;;
44706;SDS011;30433;45.596;8.408;2023-11-21T13:49:48;46.85;;;37.70;;
44706;SDS011;30433;45.596;8.408;2023-11-21T13:55:51;46.92;;;37.38;;
44706;SDS011;30433;45.596;8.408;2023-11-21T14:01:54;43.88;;;36.42;;
44706;SDS011;30433;45.596;8.408;2023-11-21T14:08:00;48.42;;;37.58;;
44706;SDS011;30433;45.596;8.408;2023-11-21T14:14:06;49.00;;;36.45;;
44706;SDS011;30433;45.596;8.408;2023-11-21T14:20:10;49.60;;;39.13;;
44706;SDS011;30433;45.596;8.408;2023-11-21T14:26:16;47.40;;;36.35;;
44706;SDS011;30433;45.596;8.408;2023-11-21T14:32:19;46.00;;;36.87;;
44706;SDS011;30433;45.596;8.408;2023-11-21T14:38:22;47.60;;;37.17;;
44706;SDS011;30433;45.596;8.408;2023-11-21T14:44:24;48.75;;;38.10;;
44706;SDS011;30433;45.596;8.408;2023-11-21T14:50:30;48.55;;;38.55;;
44706;SDS011;30433;45.596;8.408;2023-11-21T14:57:10;57.30;;;37.88;;
44706;SDS011;30433;45.596;8.408;2023-11-21T15:03:14;47.78;;;36.35;;
44706;SDS011;30433;45.596;8.408;2023-11-21T15:09:39;47.30;;;38.13;;
44706;SDS011;30433;45.596;8.408;2023-11-21T15:15:42;51.72;;;38.15;;
44706;SDS011;30433;45.596;8.408;2023-11-21T15:21:44;47.30;;;37.50;;
44706;SDS011;30433;45.596;8.408;2023-11-21T15:27:48;50.10;;;37.05;;
44706;SDS011;30433;45.596;8.408;2023-11-21T15:33:50;44.15;;;36.10;;
44706;SDS011;30433;45.596;8.408;2023-11-21T15:39:53;49.03;;;36.27;;
44706;SDS011;30433;45.596;8.408;2023-11-21T15:45:57;43.70;;;34.15;;
44706;SDS011;30433;45.596;8.408;2023-11-21T15:52:01;53.53;;;39.50;;
44706;SDS011;30433;45.596;8.408;2023-11-21T15:58:06;50.80;;;38.17;;
44706;SDS011;30433;45.596;8.408;2023-11-21T16:04:11;48.58;;;38.45;;
44706;SDS011;30433;45.596;8.408;2023-11-21T16:10:16;53.20;;;40.92;;
44706;SDS011;30433;45.596;8.408;2023-11-21T16:16:22;58.67;;;40.93;;
44706;SDS011;30433;45.596;8.408;2023-11-21T16:22:26;48.15;;;37.35;;
44706;SDS011;30433;45.596;8.408;2023-11-21T16:28:28;47.88;;;34.78;;
44706;SDS011;30433;45.596;8.408;2023-11-21T16:34:31;46.53;;;34.13;;
44706;SDS011;30433;45.596;8.408;2023-11-21T16:40:35;52.47;;;39.00;;
44706;SDS011;30433;45.596;8.408;2023-11-21T16:46:37;55.97;;;37.17;;
44706;SDS011;30433;45.596;8.408;2023-11-21T16:52:40;54.08;;;36.15;;
44706;SDS011;30433;45.596;8.408;2023-11-21T16:58:45;51.90;;;36.25;;
44706;SDS011;30433;45.596;8.408;2023-11-21T17:04:47;50.85;;;34.90;;
44706;SDS011;30433;45.596;8.408;2023-11-21T17:10:50;59.97;;;39.08;;
44706;SDS011;30433;45.596;8.408;2023-11-21T17:16:53;57.40;;;37.50;;
44706;SDS011;30433;45.596;8.408;2023-11-21T17:22:56;51.08;;;35.95;;
44706;SDS011;30433;45.596;8.408;2023-11-21T17:28:58;53.60;;;36.78;;
44706;SDS011;30433;45.596;8.408;2023-11-21T17:35:03;50.80;;;35.67;;
44706;SDS011;30433;45.596;8.408;2023-11-21T17:41:06;59.97;;;41.65;;
44706;SDS011;30433;45.596;8.408;2023-11-21T17:47:11;59.00;;;41.50;;
44706;SDS011;30433;45.596;8.408;2023-11-21T17:53:14;53.08;;;41.33;;
44706;SDS011;30433;45.596;8.408;2023-11-21T17:59:17;53.50;;;39.83;;
44706;SDS011;30433;45.596;8.408;2023-11-21T18:05:20;51.58;;;39.17;;
44706;SDS011;30433;45.596;8.408;2023-11-21T18:17:27;49.08;;;36.80;;
44706;SDS011;30433;45.596;8.408;2023-11-21T18:23:31;48.17;;;38.63;;
44706;SDS011;30433;45.596;8.408;2023-11-21T18:29:36;52.03;;;39.55;;
44706;SDS011;30433;45.596;8.408;2023-11-21T18:35:39;50.97;;;37.78;;
44706;SDS011;30433;45.596;8.408;2023-11-21T18:41:41;49.03;;;36.72;;
44706;SDS011;30433;45.596;8.408;2023-11-21T18:47:45;44.85;;;35.00;;
44706;SDS011;30433;45.596;8.408;2023-11-21T18:53:48;46.80;;;36.58;;
44706;SDS011;30433;45.596;8.408;2023-11-21T18:59:50;44.92;;;34.75;;
44706;SDS011;30433;45.596;8.408;2023-11-21T19:05:54;48.17;;;36.57;;
44706;SDS011;30433;45.596;8.408;2023-11-21T19:11:57;44.88;;;35.50;;
44706;SDS011;30433;45.596;8.408;2023-11-21T19:17:59;42.95;;;34.03;;
44706;SDS011;30433;45.596;8.408;2023-11-21T19:24:03;41.13;;;32.92;;
44706;SDS011;30433;45.596;8.408;2023-11-21T19:30:06;41.10;;;33.33;;
44706;SDS011;30433;45.596;8.408;2023-11-21T19:36:11;37.28;;;29.05;;
44706;SDS011;30433;45.596;8.408;2023-11-21T19:42:14;36.08;;;29.25;;
44706;SDS011;30433;45.596;8.408;2023-11-21T19:48:17;36.30;;;27.20;;
44706;SDS011;30433;45.596;8.408;2023-11-21T19:54:23;34.30;;;27.05;;
44706;SDS011;30433;45.596;8.408;2023-11-21T20:00:26;34.33;;;24.98;;
44706;SDS011;30433;45.596;8.408;2023-11-21T20:06:29;28.63;;;22.33;;
44706;SDS011;30433;45.596;8.408;2023-11-21T20:12:31;31.63;;;23.45;;
44706;SDS011;30433;45.596;8.408;2023-11-21T20:18:35;29.40;;;22.25;;
44706;SDS011;30433;45.596;8.408;2023-11-21T20:24:37;28.42;;;21.73;;
44706;SDS011;30433;45.596;8.408;2023-11-21T20:30:39;28.98;;;20.77;;
44706;SDS011;30433;45.596;8.408;2023-11-21T20:36:43;25.27;;;20.50;;
44706;SDS011;30433;45.596;8.408;2023-11-21T20:42:49;26.27;;;20.70;;
44706;SDS011;30433;45.596;8.408;2023-11-21T20:48:52;26.05;;;19.45;;
44706;SDS011;30433;45.596;8.408;2023-11-21T20:54:56;84.60;;;25.33;;
44706;SDS011;30433;45.596;8.408;2023-11-21T21:00:58;25.13;;;18.75;;
44706;SDS011;30433;45.596;8.408;2023-11-21T21:07:00;24.73;;;18.85;;
44706;SDS011;30433;45.596;8.408;2023-11-21T21:13:04;22.98;;;17.85;;
44706;SDS011;30433;45.596;8.408;2023-11-21T21:19:06;23.40;;;18.15;;
44706;SDS011;30433;45.596;8.408;2023-11-21T21:25:08;32.10;;;22.87;;
44706;SDS011;30433;45.596;8.408;2023-11-21T21:31:14;28.88;;;20.42;;
44706;SDS011;30433;45.596;8.408;2023-11-21T21:37:16;22.25;;;17.83;;
44706;SDS011;30433;45.596;8.408;2023-11-21T21:43:18;26.58;;;20.23;;
44706;SDS011;30433;45.596;8.408;2023-11-21T21:49:22;25.57;;;17.97;;
44706;SDS011;30433;45.596;8.408;2023-11-21T21:55:25;23.90;;;18.20;;
44706;SDS011;30433;45.596;8.408;2023-11-21T22:01:30;25.42;;;17.95;;
44706;SDS011;30433;45.596;8.408;2023-11-21T22:13:36;21.23;;;17.17;;
44706;SDS011;30433;45.596;8.408;2023-11-21T22:19:38;22.45;;;15.27;;
44706;SDS011;30433;45.596;8.408;2023-11-21T22:25:42;19.33;;;14.60;;
44706;SDS011;30433;45.596;8.408;2023-11-21T22:31:45;18.13;;;13.85;;
44706;SDS011;30433;45.596;8.408;2023-11-21T22:43:52;18.45;;;13.45;;
44706;SDS011;30433;45.596;8.408;2023-11-21T22:49:55;16.92;;;12.65;;
44706;SDS011;30433;45.596;8.408;2023-11-21T22:55:57;14.80;;;11.73;;
44706;SDS011;30433;45.596;8.408;2023-11-21T23:02:00;17.15;;;12.00;;
44706;SDS011;30433;45.596;8.408;2023-11-21T23:08:03;15.50;;;11.25;;
44706;SDS011;30433;45.596;8.408;2023-11-21T23:14:05;12.38;;;10.38;;
44706;SDS011;30433;45.596;8.408;2023-11-21T23:20:09;16.00;;;10.85;;
44706;SDS011;30433;45.596;8.408;2023-11-21T23:26:13;12.07;;;9.98;;
44706;SDS011;30433;45.596;8.408;2023-11-21T23:32:17;11.68;;;8.93;;
44706;SDS011;30433;45.596;8.408;2023-11-21T23:38:21;16.42;;;9.77;;
44706;SDS011;30433;45.596;8.408;2023-11-21T23:44:23;11.52;;;8.85;;
44706;SDS011;30433;45.596;8.408;2023-11-21T23:50:28;13.27;;;9.63;;
44706;SDS011;30433;45.596;8.408;2023-11-21T23:56:31;10.57;;;9.02;;
